createdAt,value
2023-04-04T00:01:33.505Z,1.60
2023-04-04T00:04:02.760Z,1.70
2023-04-04T00:06:31.992Z,1.60
2023-04-04T00:09:00.645Z,1.90
2023-04-04T00:11:29.364Z,2.00
2023-04-04T00:13:58.733Z,1.60
2023-04-04T00:16:27.547Z,1.60
2023-04-04T00:18:56.269Z,1.50
2023-04-04T00:21:27.435Z,1.70
2023-04-04T00:23:59.526Z,1.70
2023-04-04T00:26:28.282Z,1.50
2023-04-04T00:28:56.956Z,1.30
2023-04-04T00:31:27.311Z,1.60
2023-04-04T00:33:56.229Z,1.50
2023-04-04T00:36:24.958Z,1.60
2023-04-04T00:38:53.666Z,1.60
2023-04-04T00:41:22.613Z,1.50
2023-04-04T00:43:51.669Z,1.30
2023-04-04T00:46:20.754Z,1.50
2023-04-04T00:48:49.984Z,1.60
2023-04-04T00:51:18.714Z,1.90
2023-04-04T00:53:48.219Z,1.60
2023-04-04T00:56:17.150Z,1.40
2023-04-04T00:58:47.046Z,1.60
2023-04-04T01:01:17.166Z,1.40
2023-04-04T01:03:46.041Z,1.40
2023-04-04T01:06:15.504Z,1.60
2023-04-04T01:08:45.133Z,1.70
2023-04-04T01:11:14.437Z,1.50
2023-04-04T01:13:43.779Z,1.30
2023-04-04T01:16:12.543Z,1.80
2023-04-04T01:18:41.914Z,1.80
2023-04-04T01:21:17.155Z,2.00
2023-04-04T01:24:04.652Z,1.60
2023-04-04T01:26:33.404Z,1.50
2023-04-04T01:29:02.167Z,1.40
2023-04-04T01:31:31.050Z,1.50
2023-04-04T01:34:08.650Z,1.50
2023-04-04T01:36:49.506Z,1.70
2023-04-04T01:39:30.899Z,1.40
2023-04-04T01:42:01.597Z,1.50
2023-04-04T01:44:30.287Z,1.50
2023-04-04T01:46:59.043Z,1.50
2023-04-04T01:49:27.841Z,1.40
2023-04-04T01:51:56.949Z,1.30
2023-04-04T01:54:28.196Z,1.50
2023-04-04T01:56:57.960Z,1.60
2023-04-04T01:59:26.733Z,1.80
2023-04-04T02:01:55.826Z,1.50
2023-04-04T02:04:24.576Z,1.40
2023-04-04T02:06:53.318Z,1.80
2023-04-04T02:09:22.588Z,1.40
2023-04-04T02:11:51.354Z,1.40
2023-04-04T02:14:20.230Z,1.30
2023-04-04T02:16:49.002Z,1.40
2023-04-04T02:19:17.728Z,1.60
2023-04-04T02:21:46.472Z,1.40
2023-04-04T02:24:15.345Z,1.20
2023-04-04T02:26:43.997Z,1.50
2023-04-04T02:29:12.679Z,1.80
2023-04-04T02:31:41.412Z,1.50
2023-04-04T02:34:10.079Z,1.60
2023-04-04T02:36:38.789Z,1.60
2023-04-04T02:39:07.436Z,1.50
2023-04-04T02:41:36.435Z,1.50
2023-04-04T02:44:05.313Z,1.10
2023-04-04T02:46:34.325Z,1.20
2023-04-04T02:49:04.177Z,1.50
2023-04-04T02:51:33.644Z,1.40
2023-04-04T02:54:03.082Z,1.40
2023-04-04T02:56:32.356Z,1.70
2023-04-04T02:59:01.060Z,1.40
2023-04-04T03:01:29.811Z,1.30
2023-04-04T03:03:58.862Z,1.70
2023-04-04T03:06:31.700Z,1.40
2023-04-04T03:09:00.570Z,1.30
2023-04-04T03:11:29.910Z,1.60
2023-04-04T03:13:58.651Z,1.40
2023-04-04T03:16:27.437Z,1.40
2023-04-04T03:18:56.201Z,1.70
2023-04-04T03:21:24.881Z,1.60
2023-04-04T03:23:53.600Z,1.70
2023-04-04T03:26:22.507Z,1.60
2023-04-04T03:28:51.217Z,1.50
2023-04-04T03:31:19.873Z,1.40
2023-04-04T03:33:49.120Z,1.70
2023-04-04T03:36:17.883Z,1.40
2023-04-04T03:38:46.590Z,1.40
2023-04-04T03:41:15.608Z,1.80
2023-04-04T03:43:45.204Z,1.70
2023-04-04T03:46:14.082Z,1.60
2023-04-04T03:48:42.796Z,1.50
2023-04-04T03:51:12.408Z,1.60
2023-04-04T03:53:41.278Z,1.70
2023-04-04T03:56:09.970Z,1.40
2023-04-04T03:58:38.729Z,1.40
2023-04-04T04:01:11.440Z,1.50
2023-04-04T04:03:41.892Z,1.50
2023-04-04T04:06:10.614Z,1.60
2023-04-04T04:08:39.967Z,1.60
2023-04-04T04:11:08.875Z,1.90
2023-04-04T04:13:40.595Z,1.70
2023-04-04T04:16:09.444Z,1.60
2023-04-04T04:18:38.373Z,1.70
2023-04-04T04:21:07.120Z,2.00
2023-04-04T04:23:36.109Z,2.20
2023-04-04T04:26:05.411Z,2.20
2023-04-04T04:28:34.487Z,2.20
2023-04-04T04:31:10.169Z,2.60
2023-04-04T04:33:38.923Z,3.20
2023-04-04T04:36:08.262Z,2.90
2023-04-04T04:38:36.987Z,3.10
2023-04-04T04:41:05.731Z,2.60
2023-04-04T04:43:34.484Z,2.60
2023-04-04T04:46:03.211Z,2.10
2023-04-04T04:48:32.847Z,2.30
2023-04-04T04:51:01.570Z,2.50
2023-04-04T04:53:30.675Z,2.60
2023-04-04T04:55:59.406Z,2.60
2023-04-04T04:58:28.804Z,3.00
2023-04-04T05:00:58.100Z,3.90
2023-04-04T05:03:27.858Z,3.60
2023-04-04T05:05:57.471Z,3.20
2023-04-04T05:08:26.175Z,2.90
2023-04-04T05:10:55.229Z,3.10
2023-04-04T05:13:24.008Z,2.40
2023-04-04T05:15:52.720Z,3.10
2023-04-04T05:18:21.397Z,2.80
2023-04-04T05:20:52.165Z,2.60
2023-04-04T05:23:21.366Z,2.30
2023-04-04T05:25:53.927Z,2.20
2023-04-04T05:28:23.601Z,2.80
2023-04-04T05:30:53.617Z,2.70
2023-04-04T05:33:23.522Z,2.80
2023-04-04T05:35:52.245Z,2.00
2023-04-04T05:38:21.367Z,2.00
2023-04-04T05:40:50.077Z,2.10
2023-04-04T05:43:18.806Z,5.80
2023-04-04T05:45:47.548Z,2.20
2023-04-04T05:48:16.433Z,2.80
2023-04-04T05:50:46.138Z,2.50
2023-04-04T05:53:15.309Z,2.00
2023-04-04T05:55:44.018Z,2.20
2023-04-04T05:58:13.668Z,2.00
2023-04-04T06:00:42.981Z,2.30
2023-04-04T06:03:12.843Z,2.10
2023-04-04T06:05:42.781Z,2.50
2023-04-04T06:08:11.592Z,2.20
2023-04-04T06:10:40.533Z,2.50
2023-04-04T06:13:09.367Z,2.30
2023-04-04T06:15:38.101Z,2.30
2023-04-04T06:18:06.880Z,2.40
2023-04-04T06:20:35.635Z,2.40
2023-04-04T06:23:04.700Z,2.30
2023-04-04T06:25:33.599Z,2.30
2023-04-04T06:28:03.622Z,2.20
2023-04-04T06:30:35.387Z,2.20
2023-04-04T06:33:05.100Z,2.90
2023-04-04T06:35:33.856Z,2.20
2023-04-04T06:38:04.328Z,2.00
2023-04-04T06:40:33.071Z,2.20
2023-04-04T06:43:01.943Z,2.60
2023-04-04T06:45:33.457Z,2.60
2023-04-04T06:48:02.505Z,12.30
2023-04-04T06:50:34.291Z,22.10
2023-04-04T06:53:03.491Z,4.50
2023-04-04T06:55:33.406Z,19.00
2023-04-04T06:58:03.388Z,11.70
2023-04-04T07:00:32.059Z,4.90
2023-04-04T07:03:01.222Z,10.00
2023-04-04T07:05:30.076Z,4.70
2023-04-04T07:07:58.918Z,2.40
2023-04-04T07:10:27.688Z,13.20
2023-04-04T07:12:56.542Z,8.30
2023-04-04T07:15:25.216Z,5.70
2023-04-04T07:17:54.348Z,7.30
2023-04-04T07:20:23.415Z,11.30
2023-04-04T07:22:52.313Z,3.60
2023-04-04T07:25:21.713Z,16.40
2023-04-04T07:27:59.630Z,11.50
2023-04-04T07:30:37.784Z,10.60
2023-04-04T07:33:06.987Z,4.90
2023-04-04T07:35:35.784Z,4.90
2023-04-04T07:38:05.057Z,3.00
2023-04-04T07:40:34.000Z,2.60
2023-04-04T07:43:02.930Z,2.30
2023-04-04T07:45:31.809Z,2.10
2023-04-04T07:48:00.818Z,4.90
2023-04-04T07:50:29.752Z,8.50
2023-04-04T07:52:58.804Z,16.60
2023-04-04T07:55:28.062Z,5.30
2023-04-04T07:57:58.458Z,11.30
2023-04-04T08:00:27.757Z,7.30
2023-04-04T08:02:59.173Z,3.20
2023-04-04T08:05:28.763Z,3.80
2023-04-04T08:07:57.771Z,2.60
2023-04-04T08:10:27.058Z,2.50
2023-04-04T08:12:55.850Z,2.60
2023-04-04T08:15:24.830Z,2.80
2023-04-04T08:17:56.172Z,2.20
2023-04-04T08:20:25.364Z,2.30
2023-04-04T08:22:54.150Z,2.50
2023-04-04T08:25:24.344Z,2.50
2023-04-04T08:27:53.136Z,2.60
2023-04-04T08:30:21.866Z,2.30
2023-04-04T08:32:50.755Z,2.20
2023-04-04T08:35:19.496Z,2.20
2023-04-04T08:37:48.512Z,1.90
2023-04-04T08:40:17.866Z,1.70
2023-04-04T08:42:47.023Z,1.90
2023-04-04T08:45:17.612Z,1.90
2023-04-04T08:47:49.000Z,2.00
2023-04-04T08:50:19.300Z,2.00
2023-04-04T08:52:48.466Z,2.40
2023-04-04T08:55:17.237Z,2.30
2023-04-04T08:57:46.894Z,1.90
2023-04-04T09:00:17.867Z,1.80
2023-04-04T09:02:50.161Z,2.80
2023-04-04T09:05:19.468Z,2.60
2023-04-04T09:07:48.319Z,2.60
2023-04-04T09:10:17.124Z,2.10
2023-04-04T09:12:47.602Z,2.20
2023-04-04T09:15:16.630Z,2.90
2023-04-04T09:17:45.316Z,2.50
2023-04-04T09:20:32.631Z,2.10
2023-04-04T09:23:01.428Z,1.90
2023-04-04T09:25:30.507Z,1.50
2023-04-04T09:27:59.299Z,1.30
2023-04-04T09:30:28.087Z,1.50
2023-04-04T09:32:57.863Z,1.50
2023-04-04T09:35:27.407Z,1.50
2023-04-04T09:37:56.257Z,1.80
2023-04-04T09:40:26.530Z,1.80
2023-04-04T09:42:57.249Z,1.50
2023-04-04T09:45:43.795Z,1.30
2023-04-04T09:48:12.880Z,1.50
2023-04-04T09:50:47.804Z,1.60
2023-04-04T09:53:19.738Z,1.90
2023-04-04T09:55:52.122Z,1.80
2023-04-04T09:58:28.310Z,1.90
2023-04-04T10:00:59.465Z,2.10
2023-04-04T10:03:28.689Z,4.00
2023-04-04T10:06:00.285Z,3.20
2023-04-04T10:08:29.494Z,4.80
2023-04-04T10:11:10.505Z,2.40
2023-04-04T10:13:41.902Z,1.50
2023-04-04T10:16:12.085Z,1.80
2023-04-04T10:18:41.173Z,1.90
2023-04-04T10:23:42.258Z,1.90
2023-04-04T10:26:12.696Z,1.40
2023-04-04T10:28:42.650Z,1.70
2023-04-04T10:31:14.497Z,1.80
2023-04-04T10:45:32.008Z,1.80
2023-04-04T10:48:02.965Z,2.50
2023-04-04T10:50:33.510Z,1.70
2023-04-04T10:53:04.562Z,1.10
2023-04-04T10:55:33.732Z,1.30
2023-04-04T10:58:02.895Z,1.30
2023-04-04T11:00:31.718Z,1.40
2023-04-04T11:03:02.199Z,1.30
2023-04-04T11:05:31.887Z,1.30
2023-04-04T11:10:53.239Z,1.40
2023-04-04T11:13:26.217Z,1.30
2023-04-04T11:18:46.068Z,1.50
2023-04-04T11:21:15.651Z,1.30
2023-04-04T11:23:50.428Z,1.30
2023-04-04T11:26:34.331Z,2.20
2023-04-04T11:29:04.176Z,1.30
2023-04-04T11:31:34.763Z,1.10
2023-04-04T11:34:04.090Z,1.20
2023-04-04T11:36:40.298Z,1.40
2023-04-04T11:39:10.469Z,1.00
2023-04-04T11:41:58.769Z,1.10
2023-04-04T11:44:29.475Z,1.80
2023-04-04T11:47:02.748Z,1.10
2023-04-04T11:49:35.472Z,1.20
2023-04-04T11:52:23.880Z,1.40
2023-04-04T11:54:52.747Z,1.20
2023-04-04T11:57:21.912Z,2.50
2023-04-04T11:59:51.901Z,1.50
2023-04-04T12:02:23.533Z,1.50
2023-04-04T12:04:52.701Z,1.10
2023-04-04T12:07:24.504Z,1.00
2023-04-04T12:09:54.235Z,1.40
2023-04-04T12:12:24.276Z,1.00
2023-04-04T12:15:00.209Z,1.40
2023-04-04T12:17:39.389Z,0.90
2023-04-04T12:20:10.434Z,0.90
2023-04-04T12:22:39.692Z,1.10
2023-04-04T12:25:09.285Z,1.60
2023-04-04T12:27:38.077Z,1.10
2023-04-04T12:30:11.349Z,0.60
2023-04-04T12:32:40.100Z,0.90
2023-04-04T12:35:10.124Z,1.50
2023-04-04T12:37:39.286Z,1.00
2023-04-04T12:40:10.611Z,1.70
2023-04-04T12:42:39.376Z,1.40
2023-04-04T12:45:08.721Z,1.20
2023-04-04T12:47:37.479Z,1.30
2023-04-04T12:50:08.862Z,1.20
2023-04-04T12:52:39.468Z,1.20
2023-04-04T12:55:09.712Z,1.00
2023-04-04T12:57:39.235Z,2.00
2023-04-04T13:00:09.517Z,1.60
2023-04-04T13:02:39.092Z,1.00
2023-04-04T13:05:10.116Z,1.00
2023-04-04T13:07:45.434Z,1.50
2023-04-04T13:10:16.321Z,1.30
2023-04-04T13:13:01.158Z,1.00
2023-04-04T13:15:49.277Z,0.90
2023-04-04T13:18:25.205Z,1.40
2023-04-04T13:20:55.013Z,1.20
2023-04-04T13:23:23.710Z,1.30
2023-04-04T13:25:52.592Z,1.10
2023-04-04T13:28:21.528Z,0.90
2023-04-04T13:30:50.870Z,1.40
2023-04-04T13:33:19.586Z,1.60
2023-04-04T13:35:49.524Z,1.30
2023-04-04T13:38:18.363Z,1.50
2023-04-04T13:40:47.199Z,1.30
2023-04-04T13:43:16.125Z,1.40
2023-04-04T13:45:45.094Z,1.50
2023-04-04T13:48:14.009Z,1.70
2023-04-04T13:50:44.236Z,2.00
2023-04-04T13:53:12.972Z,1.70
2023-04-04T13:55:56.908Z,2.10
2023-04-04T13:58:30.576Z,2.00
2023-04-04T14:01:01.715Z,1.40
2023-04-04T14:03:30.665Z,2.10
2023-04-04T14:06:06.433Z,1.40
2023-04-04T14:08:38.629Z,2.10
2023-04-04T14:11:07.500Z,2.10
2023-04-04T14:13:37.320Z,1.60
2023-04-04T14:16:08.099Z,2.10
2023-04-04T14:18:40.834Z,2.20
2023-04-04T14:21:09.505Z,2.00
2023-04-04T14:23:39.208Z,1.80
2023-04-04T14:26:08.044Z,1.40
2023-04-04T14:28:37.253Z,1.40
2023-04-04T14:31:07.016Z,1.40
2023-04-04T14:33:35.816Z,1.20
2023-04-04T14:36:04.904Z,1.30
2023-04-04T14:38:33.624Z,1.70
2023-04-04T14:41:02.436Z,2.00
2023-04-04T14:43:31.247Z,2.00
2023-04-04T14:46:00.045Z,2.60
2023-04-04T14:48:28.797Z,2.20
2023-04-04T14:50:57.748Z,1.40
2023-04-04T14:53:26.636Z,1.30
2023-04-04T14:55:55.611Z,1.40
2023-04-04T14:58:24.367Z,2.50
2023-04-04T15:00:53.239Z,1.40
2023-04-04T15:03:21.974Z,1.20
2023-04-04T15:05:51.411Z,1.20
2023-04-04T15:08:20.297Z,0.90
2023-04-04T15:10:49.064Z,1.40
2023-04-04T15:13:17.794Z,1.50
2023-04-04T15:15:46.744Z,1.50
2023-04-04T15:18:16.164Z,1.10
2023-04-04T15:20:45.244Z,1.20
2023-04-04T15:23:14.167Z,1.60
2023-04-04T15:25:44.602Z,1.70
2023-04-04T15:28:13.389Z,1.30
2023-04-04T15:30:42.346Z,1.40
2023-04-04T15:33:11.291Z,1.30
2023-04-04T15:35:40.086Z,1.40
2023-04-04T15:38:08.878Z,1.40
2023-04-04T15:40:37.712Z,1.30
2023-04-04T15:43:06.833Z,1.60
2023-04-04T15:45:35.748Z,1.80
2023-04-04T15:48:04.618Z,1.90
2023-04-04T15:50:33.692Z,2.20
2023-04-04T15:53:02.585Z,2.40
2023-04-04T15:55:31.498Z,1.50
2023-04-04T15:58:01.508Z,1.80
2023-04-04T16:00:30.389Z,1.80
2023-04-04T16:02:59.401Z,1.70
2023-04-04T16:05:28.457Z,2.10
2023-04-04T16:07:57.480Z,2.40
2023-04-04T16:10:26.686Z,2.10
2023-04-04T16:12:55.671Z,2.10
2023-04-04T16:15:24.480Z,1.60
2023-04-04T16:17:53.907Z,1.50
2023-04-04T16:20:22.789Z,1.70
2023-04-04T16:22:52.486Z,2.10
2023-04-04T16:25:22.862Z,2.10
2023-04-04T16:27:52.094Z,2.10
2023-04-04T16:30:21.371Z,2.50
2023-04-04T16:32:51.870Z,3.60
2023-04-04T16:35:20.937Z,2.60
2023-04-04T16:37:49.708Z,1.80
2023-04-04T16:40:18.512Z,1.70
2023-04-04T16:42:47.378Z,1.40
2023-04-04T16:45:16.890Z,1.70
2023-04-04T16:47:46.997Z,1.20
2023-04-04T16:50:16.498Z,1.20
2023-04-04T16:52:45.329Z,1.40
2023-04-04T16:55:14.214Z,1.30
2023-04-04T16:57:43.606Z,1.20
2023-04-04T17:00:13.580Z,1.30
2023-04-04T17:02:45.650Z,1.40
2023-04-04T17:05:15.418Z,1.70
2023-04-04T17:07:44.452Z,1.90
2023-04-04T17:10:13.550Z,1.80
2023-04-04T17:12:43.096Z,1.50
2023-04-04T17:15:12.087Z,1.80
2023-04-04T17:17:42.483Z,1.70
2023-04-04T17:20:17.700Z,1.70
2023-04-04T17:22:47.557Z,1.60
2023-04-04T17:25:16.412Z,2.70
2023-04-04T17:27:45.115Z,1.70
2023-04-04T17:30:14.853Z,1.70
2023-04-04T17:32:43.678Z,1.80
2023-04-04T17:35:12.842Z,2.00
2023-04-04T17:37:42.104Z,2.00
2023-04-04T17:40:11.632Z,2.10
2023-04-04T17:42:40.339Z,1.70
2023-04-04T17:45:09.687Z,1.80
2023-04-04T17:47:38.447Z,1.80
2023-04-04T17:50:07.442Z,2.10
2023-04-04T17:52:36.311Z,2.30
2023-04-04T17:55:05.170Z,2.40
2023-04-04T17:57:34.010Z,2.50
2023-04-04T18:00:03.372Z,2.50
2023-04-04T18:02:32.072Z,2.70
2023-04-04T18:05:00.866Z,2.40
2023-04-04T18:07:29.581Z,2.20
2023-04-04T18:09:58.315Z,2.40
2023-04-04T18:12:30.142Z,2.10
2023-04-04T18:14:58.961Z,2.10
2023-04-04T18:17:28.334Z,1.80
2023-04-04T18:19:58.969Z,1.80
2023-04-04T18:22:27.693Z,1.90
2023-04-04T18:24:57.223Z,1.80
2023-04-04T18:27:26.256Z,1.70
2023-04-04T18:29:54.963Z,2.00
2023-04-04T18:32:26.330Z,2.00
2023-04-04T18:34:55.893Z,2.10
2023-04-04T18:37:24.925Z,2.00
2023-04-04T18:39:53.681Z,2.00
2023-04-04T18:42:22.634Z,2.50
2023-04-04T18:44:54.535Z,2.20
2023-04-04T18:47:23.384Z,2.50
2023-04-04T18:49:52.128Z,2.60
2023-04-04T18:52:20.979Z,2.20
2023-04-04T18:54:50.102Z,2.10
2023-04-04T18:57:19.805Z,2.10
2023-04-04T18:59:48.922Z,2.00
2023-04-04T19:02:18.359Z,2.70
2023-04-04T19:04:47.702Z,2.80
2023-04-04T19:07:22.583Z,3.60
2023-04-04T19:09:51.974Z,3.20
2023-04-04T19:12:20.852Z,3.30
2023-04-04T19:14:49.582Z,2.90
2023-04-04T19:17:18.497Z,3.20
2023-04-04T19:19:47.445Z,3.20
2023-04-04T19:22:16.401Z,2.60
2023-04-04T19:24:45.515Z,2.40
2023-04-04T19:27:14.189Z,2.20
2023-04-04T19:29:43.105Z,2.30
2023-04-04T19:32:14.115Z,2.50
2023-04-04T19:34:43.601Z,2.90
2023-04-04T19:37:12.936Z,3.40
2023-04-04T19:39:42.252Z,3.40
2023-04-04T19:42:11.512Z,4.40
2023-04-04T19:44:41.021Z,5.40
2023-04-04T19:47:10.580Z,6.30
2023-04-04T19:49:39.737Z,6.30
2023-04-04T19:52:08.849Z,6.30
2023-04-04T19:54:41.574Z,5.50
2023-04-04T19:57:17.495Z,5.70
2023-04-04T19:59:56.114Z,4.60
2023-04-04T20:02:27.807Z,3.30
2023-04-04T20:04:57.141Z,3.70
2023-04-04T20:07:26.071Z,3.90
2023-04-04T20:09:55.357Z,4.20
2023-04-04T20:12:25.590Z,4.20
2023-04-04T20:14:58.952Z,4.00
2023-04-04T20:17:27.883Z,3.90
2023-04-04T20:19:56.593Z,3.70
2023-04-04T20:22:25.707Z,4.20
2023-04-04T20:24:54.503Z,3.50
2023-04-04T20:27:25.334Z,3.20
2023-04-04T20:29:54.289Z,3.60
2023-04-04T20:32:23.042Z,3.40
2023-04-04T20:34:52.984Z,3.00
2023-04-04T20:37:23.321Z,3.20
2023-04-04T20:39:59.133Z,3.20
2023-04-04T20:42:29.702Z,3.80
2023-04-04T20:45:11.156Z,3.80
2023-04-04T20:47:44.930Z,5.60
2023-04-04T20:50:17.002Z,4.80
2023-04-04T20:53:06.167Z,3.50
2023-04-04T20:55:35.512Z,3.60
2023-04-04T20:58:09.333Z,3.50
2023-04-04T21:00:38.087Z,3.20
2023-04-04T21:03:09.683Z,3.60
2023-04-04T21:05:39.481Z,2.80
2023-04-04T21:08:29.616Z,3.50
2023-04-04T21:10:58.528Z,3.40
2023-04-04T21:13:28.006Z,3.40
2023-04-04T21:15:59.447Z,3.50
2023-04-04T21:18:31.175Z,3.10
2023-04-04T21:21:07.802Z,3.10
2023-04-04T21:23:56.846Z,3.70
2023-04-04T21:26:25.874Z,4.00
2023-04-04T21:28:54.797Z,3.50
2023-04-04T21:31:28.613Z,3.80
2023-04-04T21:34:01.704Z,5.00
2023-04-04T21:36:31.312Z,4.10
2023-04-04T21:39:01.422Z,4.00
2023-04-04T21:41:33.963Z,4.50
2023-04-04T21:44:03.689Z,4.30
2023-04-04T21:46:33.680Z,4.00
2023-04-04T21:49:02.759Z,5.10
2023-04-04T21:51:32.252Z,5.00
2023-04-04T21:54:01.255Z,5.80
2023-04-04T21:56:32.771Z,5.40
2023-04-04T21:59:02.602Z,5.30
2023-04-04T22:01:31.562Z,5.80
2023-04-04T22:04:00.690Z,5.60
2023-04-04T22:06:30.777Z,6.20
2023-04-04T22:09:00.113Z,6.10
2023-04-04T22:11:29.080Z,6.70
2023-04-04T22:14:04.312Z,7.10
2023-04-04T22:16:39.024Z,6.30
2023-04-04T22:19:12.015Z,6.20
2023-04-04T22:21:47.869Z,6.30
2023-04-04T22:24:18.237Z,6.00
2023-04-04T22:26:50.543Z,6.40
2023-04-04T22:29:19.367Z,6.30
2023-04-04T22:31:48.117Z,5.60
2023-04-04T22:34:16.940Z,6.40
2023-04-04T22:36:45.794Z,6.10
2023-04-04T22:39:16.400Z,6.00
2023-04-04T22:41:45.483Z,6.70
2023-04-04T22:44:14.318Z,8.10
2023-04-04T22:46:43.055Z,8.10
2023-04-04T22:49:13.354Z,8.00
2023-04-04T22:51:46.103Z,6.70
2023-04-04T22:54:15.557Z,7.70
2023-04-04T22:56:44.479Z,7.30
2023-04-04T22:59:13.443Z,7.10
2023-04-04T23:01:42.377Z,6.90
2023-04-04T23:04:11.462Z,6.70
2023-04-04T23:06:40.262Z,7.30
2023-04-04T23:09:09.281Z,7.00
2023-04-04T23:11:38.574Z,8.20
2023-04-04T23:14:14.727Z,7.70
2023-04-04T23:16:43.712Z,7.00
2023-04-04T23:19:12.616Z,7.20
2023-04-04T23:21:41.990Z,6.60
2023-04-04T23:24:10.709Z,6.20
2023-04-04T23:26:39.508Z,5.80
2023-04-04T23:29:08.215Z,6.80
2023-04-04T23:31:36.896Z,6.40
2023-04-04T23:34:05.972Z,7.60
2023-04-04T23:36:34.643Z,6.90
2023-04-04T23:39:03.686Z,7.10
2023-04-04T23:41:32.530Z,8.10
2023-04-04T23:44:01.308Z,8.30
2023-04-04T23:46:34.241Z,8.20
2023-04-04T23:51:38.283Z,7.70
2023-04-04T23:54:07.688Z,7.60
2023-04-04T23:56:36.789Z,8.70
2023-04-04T23:59:06.082Z,8.90
